sensor_id;sensor_type;location;lat;lon;timestamp;temperature;humidity
25554;DHT22;13446;50.926;5.332;2023-12-29T00:00:46;12.00;99.90
25554;DHT22;13446;50.926;5.332;2023-12-29T00:03:11;11.90;99.90
25554;DHT22;13446;50.926;5.332;2023-12-29T00:05:37;11.80;99.90
25554;DHT22;13446;50.926;5.332;2023-12-29T00:08:02;11.70;99.90
25554;DHT22;13446;50.926;5.332;2023-12-29T00:10:28;11.80;99.90
25554;DHT22;13446;50.926;5.332;2023-12-29T00:12:54;11.70;99.90
25554;DHT22;13446;50.926;5.332;2023-12-29T00:15:19;11.70;99.90
25554;DHT22;13446;50.926;5.332;2023-12-29T00:17:45;11.70;99.90
25554;DHT22;13446;50.926;5.332;2023-12-29T00:20:12;11.60;99.90
25554;DHT22;13446;50.926;5.332;2023-12-29T00:22:38;11.50;99.90
25554;DHT22;13446;50.926;5.332;2023-12-29T00:25:04;11.60;99.90
25554;DHT22;13446;50.926;5.332;2023-12-29T00:27:30;11.70;99.90
25554;DHT22;13446;50.926;5.332;2023-12-29T00:29:56;11.70;99.90
25554;DHT22;13446;50.926;5.332;2023-12-29T00:32:21;11.60;99.90
25554;DHT22;13446;50.926;5.332;2023-12-29T00:34:47;11.60;99.90
25554;DHT22;13446;50.926;5.332;2023-12-29T00:37:13;11.70;99.90
25554;DHT22;13446;50.926;5.332;2023-12-29T00:39:39;11.60;99.90
25554;DHT22;13446;50.926;5.332;2023-12-29T00:42:05;11.60;99.90
25554;DHT22;13446;50.926;5.332;2023-12-29T00:44:31;11.70;99.90
25554;DHT22;13446;50.926;5.332;2023-12-29T00:46:57;11.80;99.90
25554;DHT22;13446;50.926;5.332;2023-12-29T00:49:23;11.80;99.90
25554;DHT22;13446;50.926;5.332;2023-12-29T00:51:49;11.80;99.90
25554;DHT22;13446;50.926;5.332;2023-12-29T00:54:14;11.70;99.90
25554;DHT22;13446;50.926;5.332;2023-12-29T00:56:41;11.70;99.90
25554;DHT22;13446;50.926;5.332;2023-12-29T00:59:06;11.60;99.90
25554;DHT22;13446;50.926;5.332;2023-12-29T01:01:35;11.50;99.90
25554;DHT22;13446;50.926;5.332;2023-12-29T01:04:02;11.50;99.90
25554;DHT22;13446;50.926;5.332;2023-12-29T01:06:27;11.50;99.90
25554;DHT22;13446;50.926;5.332;2023-12-29T01:08:53;11.50;99.90
25554;DHT22;13446;50.926;5.332;2023-12-29T01:11:19;11.60;99.90
25554;DHT22;13446;50.926;5.332;2023-12-29T01:13:45;11.60;99.90
25554;DHT22;13446;50.926;5.332;2023-12-29T01:16:10;11.60;99.90
25554;DHT22;13446;50.926;5.332;2023-12-29T01:18:36;11.50;99.90
25554;DHT22;13446;50.926;5.332;2023-12-29T01:21:02;11.50;99.90
25554;DHT22;13446;50.926;5.332;2023-12-29T01:23:28;11.60;99.90
25554;DHT22;13446;50.926;5.332;2023-12-29T01:25:53;11.60;99.90
25554;DHT22;13446;50.926;5.332;2023-12-29T01:28:19;11.60;99.90
25554;DHT22;13446;50.926;5.332;2023-12-29T01:30:45;11.60;99.90
25554;DHT22;13446;50.926;5.332;2023-12-29T01:33:10;11.70;99.90
25554;DHT22;13446;50.926;5.332;2023-12-29T01:35:36;11.70;99.90
25554;DHT22;13446;50.926;5.332;2023-12-29T01:38:02;11.80;99.90
25554;DHT22;13446;50.926;5.332;2023-12-29T01:40:28;11.70;99.90
25554;DHT22;13446;50.926;5.332;2023-12-29T01:42:54;11.80;99.90
25554;DHT22;13446;50.926;5.332;2023-12-29T01:45:21;11.70;99.90
25554;DHT22;13446;50.926;5.332;2023-12-29T01:47:51;11.70;99.90
25554;DHT22;13446;50.926;5.332;2023-12-29T01:50:18;11.70;99.90
25554;DHT22;13446;50.926;5.332;2023-12-29T01:52:45;11.70;99.90
25554;DHT22;13446;50.926;5.332;2023-12-29T01:55:17;11.70;99.90
25554;DHT22;13446;50.926;5.332;2023-12-29T01:57:44;11.70;99.90
25554;DHT22;13446;50.926;5.332;2023-12-29T02:00:11;11.60;99.90
25554;DHT22;13446;50.926;5.332;2023-12-29T02:02:37;11.60;99.90
25554;DHT22;13446;50.926;5.332;2023-12-29T02:05:03;11.70;99.90
25554;DHT22;13446;50.926;5.332;2023-12-29T02:07:29;11.50;99.90
25554;DHT22;13446;50.926;5.332;2023-12-29T02:09:58;11.50;99.90
25554;DHT22;13446;50.926;5.332;2023-12-29T02:12:25;11.50;99.90
25554;DHT22;13446;50.926;5.332;2023-12-29T02:14:51;11.50;99.90
25554;DHT22;13446;50.926;5.332;2023-12-29T02:17:30;11.50;99.90
25554;DHT22;13446;50.926;5.332;2023-12-29T02:19:57;11.60;99.90
25554;DHT22;13446;50.926;5.332;2023-12-29T02:22:22;11.60;99.90
25554;DHT22;13446;50.926;5.332;2023-12-29T02:24:49;11.50;99.90
25554;DHT22;13446;50.926;5.332;2023-12-29T02:30:22;11.50;99.90
25554;DHT22;13446;50.926;5.332;2023-12-29T02:32:50;11.40;99.90
25554;DHT22;13446;50.926;5.332;2023-12-29T02:35:21;11.50;99.90
25554;DHT22;13446;50.926;5.332;2023-12-29T02:37:49;11.40;99.90
25554;DHT22;13446;50.926;5.332;2023-12-29T02:40:15;11.40;99.90
25554;DHT22;13446;50.926;5.332;2023-12-29T02:42:48;11.40;99.90
25554;DHT22;13446;50.926;5.332;2023-12-29T02:45:17;11.50;99.90
25554;DHT22;13446;50.926;5.332;2023-12-29T02:47:43;11.50;99.90
25554;DHT22;13446;50.926;5.332;2023-12-29T02:50:09;11.50;99.90
25554;DHT22;13446;50.926;5.332;2023-12-29T02:52:36;11.30;99.90
25554;DHT22;13446;50.926;5.332;2023-12-29T02:55:02;11.40;99.90
25554;DHT22;13446;50.926;5.332;2023-12-29T02:57:27;11.40;99.90
25554;DHT22;13446;50.926;5.332;2023-12-29T02:59:53;11.50;99.90
25554;DHT22;13446;50.926;5.332;2023-12-29T03:02:19;11.50;99.90
25554;DHT22;13446;50.926;5.332;2023-12-29T03:04:45;11.50;99.90
25554;DHT22;13446;50.926;5.332;2023-12-29T03:07:11;11.50;99.90
25554;DHT22;13446;50.926;5.332;2023-12-29T03:09:36;11.60;99.90
25554;DHT22;13446;50.926;5.332;2023-12-29T03:12:03;11.50;99.90
25554;DHT22;13446;50.926;5.332;2023-12-29T03:14:28;11.60;99.90
25554;DHT22;13446;50.926;5.332;2023-12-29T03:16:54;11.60;99.90
25554;DHT22;13446;50.926;5.332;2023-12-29T03:19:20;11.70;99.90
25554;DHT22;13446;50.926;5.332;2023-12-29T03:21:46;11.70;99.90
25554;DHT22;13446;50.926;5.332;2023-12-29T03:24:12;11.80;99.90
25554;DHT22;13446;50.926;5.332;2023-12-29T03:26:37;11.80;99.90
25554;DHT22;13446;50.926;5.332;2023-12-29T03:29:03;11.80;99.90
25554;DHT22;13446;50.926;5.332;2023-12-29T03:31:29;11.80;99.90
25554;DHT22;13446;50.926;5.332;2023-12-29T03:33:54;11.80;99.90
25554;DHT22;13446;50.926;5.332;2023-12-29T03:36:20;11.80;99.90
25554;DHT22;13446;50.926;5.332;2023-12-29T03:38:45;11.80;99.90
25554;DHT22;13446;50.926;5.332;2023-12-29T03:41:11;11.90;99.90
25554;DHT22;13446;50.926;5.332;2023-12-29T03:43:37;11.90;99.90
25554;DHT22;13446;50.926;5.332;2023-12-29T03:46:03;11.80;99.90
25554;DHT22;13446;50.926;5.332;2023-12-29T03:48:28;11.80;99.90
25554;DHT22;13446;50.926;5.332;2023-12-29T03:50:54;11.70;99.90
25554;DHT22;13446;50.926;5.332;2023-12-29T03:53:19;11.70;99.90
25554;DHT22;13446;50.926;5.332;2023-12-29T03:55:45;11.70;99.90
25554;DHT22;13446;50.926;5.332;2023-12-29T03:58:11;11.60;99.90
25554;DHT22;13446;50.926;5.332;2023-12-29T04:00:37;11.60;99.90
25554;DHT22;13446;50.926;5.332;2023-12-29T04:03:03;11.50;99.90
25554;DHT22;13446;50.926;5.332;2023-12-29T04:05:29;11.50;99.90
25554;DHT22;13446;50.926;5.332;2023-12-29T04:07:55;11.50;99.90
25554;DHT22;13446;50.926;5.332;2023-12-29T04:10:20;11.50;99.90
25554;DHT22;13446;50.926;5.332;2023-12-29T04:12:46;11.60;99.90
25554;DHT22;13446;50.926;5.332;2023-12-29T04:15:11;11.50;99.90
25554;DHT22;13446;50.926;5.332;2023-12-29T04:17:37;11.50;99.90
25554;DHT22;13446;50.926;5.332;2023-12-29T04:20:03;11.50;99.90
25554;DHT22;13446;50.926;5.332;2023-12-29T04:22:29;11.40;99.90
25554;DHT22;13446;50.926;5.332;2023-12-29T04:24:55;11.50;99.90
25554;DHT22;13446;50.926;5.332;2023-12-29T04:27:21;11.60;99.90
25554;DHT22;13446;50.926;5.332;2023-12-29T04:29:47;11.60;99.90
25554;DHT22;13446;50.926;5.332;2023-12-29T04:32:14;11.60;99.90
25554;DHT22;13446;50.926;5.332;2023-12-29T04:34:40;11.60;99.90
25554;DHT22;13446;50.926;5.332;2023-12-29T04:37:05;11.60;99.90
25554;DHT22;13446;50.926;5.332;2023-12-29T04:39:31;11.60;99.90
25554;DHT22;13446;50.926;5.332;2023-12-29T04:41:57;11.60;99.90
25554;DHT22;13446;50.926;5.332;2023-12-29T04:44:22;11.60;99.90
25554;DHT22;13446;50.926;5.332;2023-12-29T04:46:48;11.70;99.90
25554;DHT22;13446;50.926;5.332;2023-12-29T04:49:14;11.50;99.90
25554;DHT22;13446;50.926;5.332;2023-12-29T04:51:39;11.40;99.90
25554;DHT22;13446;50.926;5.332;2023-12-29T04:54:05;11.50;99.90
25554;DHT22;13446;50.926;5.332;2023-12-29T04:56:31;11.50;99.90
25554;DHT22;13446;50.926;5.332;2023-12-29T04:58:56;11.40;99.90
25554;DHT22;13446;50.926;5.332;2023-12-29T05:01:22;11.30;99.90
25554;DHT22;13446;50.926;5.332;2023-12-29T05:03:48;11.20;99.90
25554;DHT22;13446;50.926;5.332;2023-12-29T05:06:14;11.20;99.90
25554;DHT22;13446;50.926;5.332;2023-12-29T05:08:39;11.30;99.90
25554;DHT22;13446;50.926;5.332;2023-12-29T05:11:05;11.20;99.90
25554;DHT22;13446;50.926;5.332;2023-12-29T05:13:31;11.20;99.90
25554;DHT22;13446;50.926;5.332;2023-12-29T05:15:57;11.20;99.90
25554;DHT22;13446;50.926;5.332;2023-12-29T05:18:22;11.20;99.90
25554;DHT22;13446;50.926;5.332;2023-12-29T05:20:48;11.30;99.90
25554;DHT22;13446;50.926;5.332;2023-12-29T05:23:14;11.30;99.90
25554;DHT22;13446;50.926;5.332;2023-12-29T05:25:39;11.30;99.90
25554;DHT22;13446;50.926;5.332;2023-12-29T05:28:06;11.20;99.90
25554;DHT22;13446;50.926;5.332;2023-12-29T05:30:32;11.20;99.90
25554;DHT22;13446;50.926;5.332;2023-12-29T05:32:58;11.20;99.90
25554;DHT22;13446;50.926;5.332;2023-12-29T05:35:24;11.30;99.90
25554;DHT22;13446;50.926;5.332;2023-12-29T05:37:49;11.30;99.90
25554;DHT22;13446;50.926;5.332;2023-12-29T05:40:16;11.20;99.90
25554;DHT22;13446;50.926;5.332;2023-12-29T05:42:41;11.30;99.90
25554;DHT22;13446;50.926;5.332;2023-12-29T05:45:07;11.20;99.90
25554;DHT22;13446;50.926;5.332;2023-12-29T05:47:33;11.30;99.90
25554;DHT22;13446;50.926;5.332;2023-12-29T05:49:59;11.30;99.90
25554;DHT22;13446;50.926;5.332;2023-12-29T05:52:24;11.40;99.90
25554;DHT22;13446;50.926;5.332;2023-12-29T05:54:50;11.50;99.90
25554;DHT22;13446;50.926;5.332;2023-12-29T05:57:16;11.40;99.90
25554;DHT22;13446;50.926;5.332;2023-12-29T05:59:41;11.40;99.90
25554;DHT22;13446;50.926;5.332;2023-12-29T06:02:07;11.40;99.90
25554;DHT22;13446;50.926;5.332;2023-12-29T06:04:33;11.30;99.90
25554;DHT22;13446;50.926;5.332;2023-12-29T06:06:58;11.30;99.90
25554;DHT22;13446;50.926;5.332;2023-12-29T06:09:24;11.40;99.90
25554;DHT22;13446;50.926;5.332;2023-12-29T06:11:50;11.40;99.90
25554;DHT22;13446;50.926;5.332;2023-12-29T06:14:16;11.50;99.90
25554;DHT22;13446;50.926;5.332;2023-12-29T06:16:41;11.50;99.90
25554;DHT22;13446;50.926;5.332;2023-12-29T06:19:08;11.60;99.90
25554;DHT22;13446;50.926;5.332;2023-12-29T06:21:43;11.50;99.90
25554;DHT22;13446;50.926;5.332;2023-12-29T06:24:10;11.50;99.90
25554;DHT22;13446;50.926;5.332;2023-12-29T06:26:37;11.50;99.90
25554;DHT22;13446;50.926;5.332;2023-12-29T06:29:08;11.40;99.90
25554;DHT22;13446;50.926;5.332;2023-12-29T06:31:34;11.30;99.90
25554;DHT22;13446;50.926;5.332;2023-12-29T06:34:00;11.40;99.90
25554;DHT22;13446;50.926;5.332;2023-12-29T06:36:26;11.50;99.90
25554;DHT22;13446;50.926;5.332;2023-12-29T06:38:51;11.60;99.90
25554;DHT22;13446;50.926;5.332;2023-12-29T06:41:19;11.70;99.90
25554;DHT22;13446;50.926;5.332;2023-12-29T06:43:45;11.70;99.90
25554;DHT22;13446;50.926;5.332;2023-12-29T06:46:11;11.60;99.90
25554;DHT22;13446;50.926;5.332;2023-12-29T06:48:39;11.60;99.90
25554;DHT22;13446;50.926;5.332;2023-12-29T06:51:05;11.60;99.90
25554;DHT22;13446;50.926;5.332;2023-12-29T06:53:31;11.50;99.90
25554;DHT22;13446;50.926;5.332;2023-12-29T06:55:56;11.40;99.90
25554;DHT22;13446;50.926;5.332;2023-12-29T06:58:22;11.40;99.90
25554;DHT22;13446;50.926;5.332;2023-12-29T07:00:48;11.40;99.90
25554;DHT22;13446;50.926;5.332;2023-12-29T07:03:14;11.40;99.90
25554;DHT22;13446;50.926;5.332;2023-12-29T07:05:40;11.30;99.90
25554;DHT22;13446;50.926;5.332;2023-12-29T07:08:06;11.30;99.90
25554;DHT22;13446;50.926;5.332;2023-12-29T07:10:32;11.20;99.90
25554;DHT22;13446;50.926;5.332;2023-12-29T07:12:57;11.20;99.90
25554;DHT22;13446;50.926;5.332;2023-12-29T07:15:23;11.10;99.90
25554;DHT22;13446;50.926;5.332;2023-12-29T07:17:48;11.00;99.90
25554;DHT22;13446;50.926;5.332;2023-12-29T07:20:14;11.00;99.90
25554;DHT22;13446;50.926;5.332;2023-12-29T07:22:40;11.00;99.90
25554;DHT22;13446;50.926;5.332;2023-12-29T07:25:07;11.00;99.90
25554;DHT22;13446;50.926;5.332;2023-12-29T07:27:32;11.00;99.90
25554;DHT22;13446;50.926;5.332;2023-12-29T07:29:58;10.90;99.90
25554;DHT22;13446;50.926;5.332;2023-12-29T07:32:24;10.70;99.90
25554;DHT22;13446;50.926;5.332;2023-12-29T07:34:53;10.70;99.90
25554;DHT22;13446;50.926;5.332;2023-12-29T07:37:19;10.60;99.90
25554;DHT22;13446;50.926;5.332;2023-12-29T07:39:45;10.70;99.90
25554;DHT22;13446;50.926;5.332;2023-12-29T07:42:13;10.60;99.90
25554;DHT22;13446;50.926;5.332;2023-12-29T07:44:39;10.60;99.90
25554;DHT22;13446;50.926;5.332;2023-12-29T07:47:05;10.60;99.90
25554;DHT22;13446;50.926;5.332;2023-12-29T07:49:31;10.60;99.90
25554;DHT22;13446;50.926;5.332;2023-12-29T07:51:56;10.70;99.90
25554;DHT22;13446;50.926;5.332;2023-12-29T07:54:25;10.70;99.90
25554;DHT22;13446;50.926;5.332;2023-12-29T07:56:50;10.70;99.90
25554;DHT22;13446;50.926;5.332;2023-12-29T07:59:16;10.60;99.90
25554;DHT22;13446;50.926;5.332;2023-12-29T08:01:42;10.60;99.90
25554;DHT22;13446;50.926;5.332;2023-12-29T08:04:09;10.60;99.90
25554;DHT22;13446;50.926;5.332;2023-12-29T08:06:37;10.70;99.90
25554;DHT22;13446;50.926;5.332;2023-12-29T08:09:03;10.70;99.90
25554;DHT22;13446;50.926;5.332;2023-12-29T08:11:29;10.60;99.90
25554;DHT22;13446;50.926;5.332;2023-12-29T08:13:55;10.60;99.90
25554;DHT22;13446;50.926;5.332;2023-12-29T08:16:24;10.70;99.90
25554;DHT22;13446;50.926;5.332;2023-12-29T08:18:49;10.80;99.90
25554;DHT22;13446;50.926;5.332;2023-12-29T08:21:19;10.80;99.90
25554;DHT22;13446;50.926;5.332;2023-12-29T08:23:46;10.80;99.90
25554;DHT22;13446;50.926;5.332;2023-12-29T08:26:12;10.80;99.90
25554;DHT22;13446;50.926;5.332;2023-12-29T08:28:38;10.80;99.90
25554;DHT22;13446;50.926;5.332;2023-12-29T08:31:03;10.90;99.90
25554;DHT22;13446;50.926;5.332;2023-12-29T08:33:30;10.60;99.90
25554;DHT22;13446;50.926;5.332;2023-12-29T08:35:55;10.60;99.90
25554;DHT22;13446;50.926;5.332;2023-12-29T08:38:29;10.60;99.90
25554;DHT22;13446;50.926;5.332;2023-12-29T08:40:54;10.70;99.90
25554;DHT22;13446;50.926;5.332;2023-12-29T08:43:21;10.70;99.90
25554;DHT22;13446;50.926;5.332;2023-12-29T08:45:47;10.70;99.90
25554;DHT22;13446;50.926;5.332;2023-12-29T08:48:13;10.80;99.90
25554;DHT22;13446;50.926;5.332;2023-12-29T08:50:39;10.80;99.90
25554;DHT22;13446;50.926;5.332;2023-12-29T08:53:04;10.90;99.90
25554;DHT22;13446;50.926;5.332;2023-12-29T08:55:30;10.80;99.90
25554;DHT22;13446;50.926;5.332;2023-12-29T08:57:57;10.70;99.90
25554;DHT22;13446;50.926;5.332;2023-12-29T09:00:23;10.80;99.90
25554;DHT22;13446;50.926;5.332;2023-12-29T09:02:49;10.90;99.90
25554;DHT22;13446;50.926;5.332;2023-12-29T09:05:14;11.00;99.90
25554;DHT22;13446;50.926;5.332;2023-12-29T09:07:40;11.00;99.90
25554;DHT22;13446;50.926;5.332;2023-12-29T09:10:06;11.00;99.90
25554;DHT22;13446;50.926;5.332;2023-12-29T09:12:38;11.10;99.90
25554;DHT22;13446;50.926;5.332;2023-12-29T09:15:05;11.10;99.90
25554;DHT22;13446;50.926;5.332;2023-12-29T09:17:31;11.00;99.90
25554;DHT22;13446;50.926;5.332;2023-12-29T09:19:57;11.00;99.90
25554;DHT22;13446;50.926;5.332;2023-12-29T09:22:22;11.10;99.90
25554;DHT22;13446;50.926;5.332;2023-12-29T09:24:48;11.10;99.90
25554;DHT22;13446;50.926;5.332;2023-12-29T09:27:14;11.20;99.90
25554;DHT22;13446;50.926;5.332;2023-12-29T09:29:39;11.20;99.90
25554;DHT22;13446;50.926;5.332;2023-12-29T09:32:06;11.20;99.90
25554;DHT22;13446;50.926;5.332;2023-12-29T09:34:32;11.20;99.90
25554;DHT22;13446;50.926;5.332;2023-12-29T09:36:58;11.10;99.90
25554;DHT22;13446;50.926;5.332;2023-12-29T09:39:24;11.20;99.90
25554;DHT22;13446;50.926;5.332;2023-12-29T09:41:52;11.10;99.90
25554;DHT22;13446;50.926;5.332;2023-12-29T09:44:20;11.00;99.90
25554;DHT22;13446;50.926;5.332;2023-12-29T09:46:54;11.10;99.90
25554;DHT22;13446;50.926;5.332;2023-12-29T09:49:23;11.20;99.90
25554;DHT22;13446;50.926;5.332;2023-12-29T09:51:59;11.30;99.90
25554;DHT22;13446;50.926;5.332;2023-12-29T09:54:25;11.30;99.90
25554;DHT22;13446;50.926;5.332;2023-12-29T09:56:51;11.40;99.90
25554;DHT22;13446;50.926;5.332;2023-12-29T09:59:17;11.50;99.90
25554;DHT22;13446;50.926;5.332;2023-12-29T10:01:45;11.40;99.90
25554;DHT22;13446;50.926;5.332;2023-12-29T10:04:12;11.30;99.90
25554;DHT22;13446;50.926;5.332;2023-12-29T10:06:41;11.30;99.90
25554;DHT22;13446;50.926;5.332;2023-12-29T10:09:12;11.40;99.90
25554;DHT22;13446;50.926;5.332;2023-12-29T10:11:38;11.40;99.90
25554;DHT22;13446;50.926;5.332;2023-12-29T10:17:39;11.60;99.90
25554;DHT22;13446;50.926;5.332;2023-12-29T10:23:10;11.70;99.90
25554;DHT22;13446;50.926;5.332;2023-12-29T10:25:39;11.70;99.90
25554;DHT22;13446;50.926;5.332;2023-12-29T10:28:06;11.70;99.90
25554;DHT22;13446;50.926;5.332;2023-12-29T10:30:32;11.80;99.90
25554;DHT22;13446;50.926;5.332;2023-12-29T10:32:58;11.80;99.90
25554;DHT22;13446;50.926;5.332;2023-12-29T10:35:26;11.80;99.90
25554;DHT22;13446;50.926;5.332;2023-12-29T10:37:51;11.90;99.90
25554;DHT22;13446;50.926;5.332;2023-12-29T10:40:18;12.00;99.90
25554;DHT22;13446;50.926;5.332;2023-12-29T10:42:54;12.00;99.90
25554;DHT22;13446;50.926;5.332;2023-12-29T10:45:20;11.90;99.90
25554;DHT22;13446;50.926;5.332;2023-12-29T10:47:47;11.80;99.90
25554;DHT22;13446;50.926;5.332;2023-12-29T10:50:13;11.80;99.90
25554;DHT22;13446;50.926;5.332;2023-12-29T10:52:38;11.80;99.90
25554;DHT22;13446;50.926;5.332;2023-12-29T10:55:10;11.70;99.90
25554;DHT22;13446;50.926;5.332;2023-12-29T10:57:40;11.60;99.90
25554;DHT22;13446;50.926;5.332;2023-12-29T11:00:07;11.50;99.90
25554;DHT22;13446;50.926;5.332;2023-12-29T11:02:34;11.50;99.90
25554;DHT22;13446;50.926;5.332;2023-12-29T11:05:07;11.60;99.90
25554;DHT22;13446;50.926;5.332;2023-12-29T11:07:34;11.70;99.90
25554;DHT22;13446;50.926;5.332;2023-12-29T11:10:02;11.70;99.90
25554;DHT22;13446;50.926;5.332;2023-12-29T11:12:32;11.80;99.90
25554;DHT22;13446;50.926;5.332;2023-12-29T11:14:59;11.80;99.90
25554;DHT22;13446;50.926;5.332;2023-12-29T11:17:26;11.80;99.90
25554;DHT22;13446;50.926;5.332;2023-12-29T11:19:52;11.90;99.90
25554;DHT22;13446;50.926;5.332;2023-12-29T11:22:19;11.90;99.90
25554;DHT22;13446;50.926;5.332;2023-12-29T11:24:48;11.90;99.90
25554;DHT22;13446;50.926;5.332;2023-12-29T11:27:14;11.90;99.90
25554;DHT22;13446;50.926;5.332;2023-12-29T11:29:42;11.80;99.90
25554;DHT22;13446;50.926;5.332;2023-12-29T11:32:16;11.80;99.90
25554;DHT22;13446;50.926;5.332;2023-12-29T11:34:52;11.80;99.90
25554;DHT22;13446;50.926;5.332;2023-12-29T11:40:37;11.70;99.90
25554;DHT22;13446;50.926;5.332;2023-12-29T11:43:12;11.60;99.90
25554;DHT22;13446;50.926;5.332;2023-12-29T11:45:38;11.60;99.90
25554;DHT22;13446;50.926;5.332;2023-12-29T11:48:05;11.70;99.90
25554;DHT22;13446;50.926;5.332;2023-12-29T11:50:35;11.70;99.90
25554;DHT22;13446;50.926;5.332;2023-12-29T11:53:02;11.80;99.90
25554;DHT22;13446;50.926;5.332;2023-12-29T11:55:30;11.80;99.90
25554;DHT22;13446;50.926;5.332;2023-12-29T11:57:57;11.80;99.90
25554;DHT22;13446;50.926;5.332;2023-12-29T12:00:45;11.90;99.90
25554;DHT22;13446;50.926;5.332;2023-12-29T12:03:26;11.90;99.90
25554;DHT22;13446;50.926;5.332;2023-12-29T12:05:53;12.00;99.90
25554;DHT22;13446;50.926;5.332;2023-12-29T12:10:52;12.00;99.90
25554;DHT22;13446;50.926;5.332;2023-12-29T12:13:43;12.20;99.90
25554;DHT22;13446;50.926;5.332;2023-12-29T12:16:10;12.10;99.90
25554;DHT22;13446;50.926;5.332;2023-12-29T12:18:55;12.10;99.90
25554;DHT22;13446;50.926;5.332;2023-12-29T12:21:21;12.00;99.90
25554;DHT22;13446;50.926;5.332;2023-12-29T12:23:49;12.20;99.90
25554;DHT22;13446;50.926;5.332;2023-12-29T12:26:15;12.20;99.90
25554;DHT22;13446;50.926;5.332;2023-12-29T12:28:41;12.30;99.90
25554;DHT22;13446;50.926;5.332;2023-12-29T12:31:09;12.30;99.90
25554;DHT22;13446;50.926;5.332;2023-12-29T12:33:38;12.30;99.90
25554;DHT22;13446;50.926;5.332;2023-12-29T12:36:03;12.30;99.90
25554;DHT22;13446;50.926;5.332;2023-12-29T12:38:29;12.20;99.90
25554;DHT22;13446;50.926;5.332;2023-12-29T12:40:57;12.10;99.90
25554;DHT22;13446;50.926;5.332;2023-12-29T12:43:25;12.10;99.90
25554;DHT22;13446;50.926;5.332;2023-12-29T12:46:01;12.00;99.90
25554;DHT22;13446;50.926;5.332;2023-12-29T12:48:36;12.00;99.90
25554;DHT22;13446;50.926;5.332;2023-12-29T12:51:05;12.00;99.90
25554;DHT22;13446;50.926;5.332;2023-12-29T12:53:32;11.90;99.90
25554;DHT22;13446;50.926;5.332;2023-12-29T12:55:58;11.80;99.90
25554;DHT22;13446;50.926;5.332;2023-12-29T12:58:24;11.70;99.90
25554;DHT22;13446;50.926;5.332;2023-12-29T13:00:52;11.60;99.90
25554;DHT22;13446;50.926;5.332;2023-12-29T13:03:18;11.60;99.90
25554;DHT22;13446;50.926;5.332;2023-12-29T13:05:44;11.60;99.90
25554;DHT22;13446;50.926;5.332;2023-12-29T13:08:11;11.60;99.90
25554;DHT22;13446;50.926;5.332;2023-12-29T13:10:42;11.50;99.90
25554;DHT22;13446;50.926;5.332;2023-12-29T13:13:10;11.40;99.90
25554;DHT22;13446;50.926;5.332;2023-12-29T13:15:49;11.50;99.90
25554;DHT22;13446;50.926;5.332;2023-12-29T13:18:15;11.70;99.90
25554;DHT22;13446;50.926;5.332;2023-12-29T13:20:48;11.60;99.90
25554;DHT22;13446;50.926;5.332;2023-12-29T13:23:14;11.50;99.90
25554;DHT22;13446;50.926;5.332;2023-12-29T13:25:42;11.50;99.90
25554;DHT22;13446;50.926;5.332;2023-12-29T13:28:09;11.40;99.90
25554;DHT22;13446;50.926;5.332;2023-12-29T13:30:36;11.30;99.90
25554;DHT22;13446;50.926;5.332;2023-12-29T13:33:18;11.30;99.90
25554;DHT22;13446;50.926;5.332;2023-12-29T13:35:54;11.40;99.90
25554;DHT22;13446;50.926;5.332;2023-12-29T13:38:29;11.30;99.90
25554;DHT22;13446;50.926;5.332;2023-12-29T13:41:08;11.40;99.90
25554;DHT22;13446;50.926;5.332;2023-12-29T13:43:36;11.40;99.90
25554;DHT22;13446;50.926;5.332;2023-12-29T13:46:04;11.40;99.90
25554;DHT22;13446;50.926;5.332;2023-12-29T13:48:32;11.30;99.90
25554;DHT22;13446;50.926;5.332;2023-12-29T13:50:58;11.20;99.90
25554;DHT22;13446;50.926;5.332;2023-12-29T13:53:24;11.30;99.90
25554;DHT22;13446;50.926;5.332;2023-12-29T13:55:51;11.50;99.90
25554;DHT22;13446;50.926;5.332;2023-12-29T13:58:17;11.50;99.90
25554;DHT22;13446;50.926;5.332;2023-12-29T14:00:43;11.50;99.90
25554;DHT22;13446;50.926;5.332;2023-12-29T14:03:27;11.50;99.90
25554;DHT22;13446;50.926;5.332;2023-12-29T14:06:08;11.40;99.90
25554;DHT22;13446;50.926;5.332;2023-12-29T14:08:39;11.50;99.90
25554;DHT22;13446;50.926;5.332;2023-12-29T14:11:11;11.50;99.90
25554;DHT22;13446;50.926;5.332;2023-12-29T14:13:44;11.50;99.90
25554;DHT22;13446;50.926;5.332;2023-12-29T14:16:11;11.50;99.90
25554;DHT22;13446;50.926;5.332;2023-12-29T14:21:27;11.50;99.90
25554;DHT22;13446;50.926;5.332;2023-12-29T14:26:56;11.50;99.90
25554;DHT22;13446;50.926;5.332;2023-12-29T14:29:22;11.60;99.90
25554;DHT22;13446;50.926;5.332;2023-12-29T14:31:49;11.60;99.90
25554;DHT22;13446;50.926;5.332;2023-12-29T14:34:19;11.60;99.90
25554;DHT22;13446;50.926;5.332;2023-12-29T14:36:45;11.60;99.90
25554;DHT22;13446;50.926;5.332;2023-12-29T14:39:11;11.60;99.90
25554;DHT22;13446;50.926;5.332;2023-12-29T14:41:38;11.60;99.90
25554;DHT22;13446;50.926;5.332;2023-12-29T14:44:04;11.70;99.90
25554;DHT22;13446;50.926;5.332;2023-12-29T14:46:29;11.60;99.90
25554;DHT22;13446;50.926;5.332;2023-12-29T14:48:57;11.50;99.90
25554;DHT22;13446;50.926;5.332;2023-12-29T14:51:23;11.60;99.90
25554;DHT22;13446;50.926;5.332;2023-12-29T14:53:49;11.60;99.90
25554;DHT22;13446;50.926;5.332;2023-12-29T14:56:16;11.60;99.90
25554;DHT22;13446;50.926;5.332;2023-12-29T14:58:42;11.70;99.90
25554;DHT22;13446;50.926;5.332;2023-12-29T15:01:09;11.60;99.90
25554;DHT22;13446;50.926;5.332;2023-12-29T15:03:35;11.50;99.90
25554;DHT22;13446;50.926;5.332;2023-12-29T15:06:02;11.60;99.90
25554;DHT22;13446;50.926;5.332;2023-12-29T15:08:28;11.50;99.90
25554;DHT22;13446;50.926;5.332;2023-12-29T15:11:01;11.50;99.90
25554;DHT22;13446;50.926;5.332;2023-12-29T15:13:27;11.50;99.90
25554;DHT22;13446;50.926;5.332;2023-12-29T15:15:54;11.50;99.90
25554;DHT22;13446;50.926;5.332;2023-12-29T15:18:19;11.60;99.90
25554;DHT22;13446;50.926;5.332;2023-12-29T15:20:45;11.60;99.90
25554;DHT22;13446;50.926;5.332;2023-12-29T15:23:11;11.50;99.90
25554;DHT22;13446;50.926;5.332;2023-12-29T15:25:36;11.50;99.90
25554;DHT22;13446;50.926;5.332;2023-12-29T15:28:03;11.50;99.90
25554;DHT22;13446;50.926;5.332;2023-12-29T15:30:29;11.50;99.90
25554;DHT22;13446;50.926;5.332;2023-12-29T15:32:54;11.40;99.90
25554;DHT22;13446;50.926;5.332;2023-12-29T15:35:20;11.40;99.90
25554;DHT22;13446;50.926;5.332;2023-12-29T15:37:46;11.50;99.90
25554;DHT22;13446;50.926;5.332;2023-12-29T15:40:11;11.50;99.90
25554;DHT22;13446;50.926;5.332;2023-12-29T15:42:37;11.50;99.90
25554;DHT22;13446;50.926;5.332;2023-12-29T15:45:03;11.50;99.90
25554;DHT22;13446;50.926;5.332;2023-12-29T15:47:29;11.40;99.90
25554;DHT22;13446;50.926;5.332;2023-12-29T15:49:54;11.40;99.90